sensor_id;sensor_type;location;lat;lon;timestamp;temperature;humidity
9564;DHT22;4820;50.870;4.702;2023-11-21T00:00:19;10.40;99.90
9564;DHT22;4820;50.870;4.702;2023-11-21T00:02:45;10.30;99.90
9564;DHT22;4820;50.870;4.702;2023-11-21T00:05:12;10.30;99.90
9564;DHT22;4820;50.870;4.702;2023-11-21T00:07:42;10.40;99.90
9564;DHT22;4820;50.870;4.702;2023-11-21T00:10:09;10.40;99.90
9564;DHT22;4820;50.870;4.702;2023-11-21T00:12:36;10.40;99.90
9564;DHT22;4820;50.870;4.702;2023-11-21T00:15:03;10.40;99.90
9564;DHT22;4820;50.870;4.702;2023-11-21T00:17:30;10.40;99.90
9564;DHT22;4820;50.870;4.702;2023-11-21T00:19:56;10.40;99.90
9564;DHT22;4820;50.870;4.702;2023-11-21T00:22:22;10.40;99.90
9564;DHT22;4820;50.870;4.702;2023-11-21T00:24:48;10.40;99.90
9564;DHT22;4820;50.870;4.702;2023-11-21T00:27:14;10.40;99.90
9564;DHT22;4820;50.870;4.702;2023-11-21T00:29:40;10.40;99.90
9564;DHT22;4820;50.870;4.702;2023-11-21T00:32:07;10.40;99.90
9564;DHT22;4820;50.870;4.702;2023-11-21T00:34:35;10.40;99.90
9564;DHT22;4820;50.870;4.702;2023-11-21T00:37:00;10.40;99.90
9564;DHT22;4820;50.870;4.702;2023-11-21T00:39:28;10.40;99.90
9564;DHT22;4820;50.870;4.702;2023-11-21T00:41:55;10.40;99.90
9564;DHT22;4820;50.870;4.702;2023-11-21T00:44:20;10.40;99.90
9564;DHT22;4820;50.870;4.702;2023-11-21T00:46:46;10.40;99.90
9564;DHT22;4820;50.870;4.702;2023-11-21T00:49:12;10.30;99.90
9564;DHT22;4820;50.870;4.702;2023-11-21T00:51:38;10.30;99.90
9564;DHT22;4820;50.870;4.702;2023-11-21T00:54:04;10.30;99.90
9564;DHT22;4820;50.870;4.702;2023-11-21T00:56:30;10.30;99.90
9564;DHT22;4820;50.870;4.702;2023-11-21T00:58:56;10.20;99.90
9564;DHT22;4820;50.870;4.702;2023-11-21T01:01:22;10.10;99.90
9564;DHT22;4820;50.870;4.702;2023-11-21T01:03:48;10.00;99.90
9564;DHT22;4820;50.870;4.702;2023-11-21T01:06:15;9.90;99.90
9564;DHT22;4820;50.870;4.702;2023-11-21T01:08:40;9.90;99.90
9564;DHT22;4820;50.870;4.702;2023-11-21T01:11:06;9.90;99.90
9564;DHT22;4820;50.870;4.702;2023-11-21T01:13:37;9.80;99.90
9564;DHT22;4820;50.870;4.702;2023-11-21T01:16:03;9.80;99.90
9564;DHT22;4820;50.870;4.702;2023-11-21T01:18:29;9.80;99.90
9564;DHT22;4820;50.870;4.702;2023-11-21T01:20:55;9.70;99.90
9564;DHT22;4820;50.870;4.702;2023-11-21T01:23:20;9.70;99.90
9564;DHT22;4820;50.870;4.702;2023-11-21T01:25:46;9.70;99.90
9564;DHT22;4820;50.870;4.702;2023-11-21T01:28:13;9.70;99.90
9564;DHT22;4820;50.870;4.702;2023-11-21T01:30:39;9.70;99.90
9564;DHT22;4820;50.870;4.702;2023-11-21T01:33:04;9.70;99.90
9564;DHT22;4820;50.870;4.702;2023-11-21T01:35:30;9.80;99.90
9564;DHT22;4820;50.870;4.702;2023-11-21T01:37:56;9.80;99.90
9564;DHT22;4820;50.870;4.702;2023-11-21T01:40:22;9.80;99.90
9564;DHT22;4820;50.870;4.702;2023-11-21T01:42:48;9.80;99.90
9564;DHT22;4820;50.870;4.702;2023-11-21T01:45:14;9.80;99.90
9564;DHT22;4820;50.870;4.702;2023-11-21T01:47:41;9.80;99.90
9564;DHT22;4820;50.870;4.702;2023-11-21T01:50:08;9.80;99.90
9564;DHT22;4820;50.870;4.702;2023-11-21T01:52:39;9.80;99.90
9564;DHT22;4820;50.870;4.702;2023-11-21T01:55:07;9.90;99.90
9564;DHT22;4820;50.870;4.702;2023-11-21T01:57:35;9.90;99.90
9564;DHT22;4820;50.870;4.702;2023-11-21T02:00:03;9.90;99.90
9564;DHT22;4820;50.870;4.702;2023-11-21T02:02:47;9.90;99.90
9564;DHT22;4820;50.870;4.702;2023-11-21T02:05:14;9.90;99.90
9564;DHT22;4820;50.870;4.702;2023-11-21T02:07:42;9.90;99.90
9564;DHT22;4820;50.870;4.702;2023-11-21T02:10:11;9.90;99.90
9564;DHT22;4820;50.870;4.702;2023-11-21T02:12:43;10.00;99.90
9564;DHT22;4820;50.870;4.702;2023-11-21T02:15:14;9.90;99.90
9564;DHT22;4820;50.870;4.702;2023-11-21T02:17:49;10.00;99.90
9564;DHT22;4820;50.870;4.702;2023-11-21T02:20:20;9.90;99.90
9564;DHT22;4820;50.870;4.702;2023-11-21T02:22:50;9.80;99.90
9564;DHT22;4820;50.870;4.702;2023-11-21T02:25:27;9.80;99.90
9564;DHT22;4820;50.870;4.702;2023-11-21T02:27:56;9.80;99.90
9564;DHT22;4820;50.870;4.702;2023-11-21T02:30:22;9.80;99.90
9564;DHT22;4820;50.870;4.702;2023-11-21T02:32:50;9.80;99.90
9564;DHT22;4820;50.870;4.702;2023-11-21T02:35:19;9.80;99.90
9564;DHT22;4820;50.870;4.702;2023-11-21T02:37:49;9.80;99.90
9564;DHT22;4820;50.870;4.702;2023-11-21T02:40:15;9.80;99.90
9564;DHT22;4820;50.870;4.702;2023-11-21T02:42:46;9.80;99.90
9564;DHT22;4820;50.870;4.702;2023-11-21T02:45:14;9.80;99.90
9564;DHT22;4820;50.870;4.702;2023-11-21T02:47:45;9.80;99.90
9564;DHT22;4820;50.870;4.702;2023-11-21T02:50:11;9.80;99.90
9564;DHT22;4820;50.870;4.702;2023-11-21T02:52:37;9.80;99.90
9564;DHT22;4820;50.870;4.702;2023-11-21T02:55:03;9.80;99.90
9564;DHT22;4820;50.870;4.702;2023-11-21T02:57:29;9.80;99.90
9564;DHT22;4820;50.870;4.702;2023-11-21T02:59:55;9.80;99.90
9564;DHT22;4820;50.870;4.702;2023-11-21T03:02:22;9.80;99.90
9564;DHT22;4820;50.870;4.702;2023-11-21T03:04:48;9.80;99.90
9564;DHT22;4820;50.870;4.702;2023-11-21T03:07:15;9.80;99.90
9564;DHT22;4820;50.870;4.702;2023-11-21T03:09:41;9.80;99.90
9564;DHT22;4820;50.870;4.702;2023-11-21T03:12:06;9.80;99.90
9564;DHT22;4820;50.870;4.702;2023-11-21T03:14:32;9.80;99.90
9564;DHT22;4820;50.870;4.702;2023-11-21T03:16:58;9.80;99.90
9564;DHT22;4820;50.870;4.702;2023-11-21T03:19:24;9.90;99.90
9564;DHT22;4820;50.870;4.702;2023-11-21T03:21:50;9.90;99.90
9564;DHT22;4820;50.870;4.702;2023-11-21T03:24:18;10.00;99.90
9564;DHT22;4820;50.870;4.702;2023-11-21T03:26:45;9.90;99.90
9564;DHT22;4820;50.870;4.702;2023-11-21T03:29:12;10.00;99.90
9564;DHT22;4820;50.870;4.702;2023-11-21T03:31:39;10.00;99.90
9564;DHT22;4820;50.870;4.702;2023-11-21T03:34:04;10.00;99.90
9564;DHT22;4820;50.870;4.702;2023-11-21T03:36:31;10.00;99.90
9564;DHT22;4820;50.870;4.702;2023-11-21T03:38:57;10.00;99.90
9564;DHT22;4820;50.870;4.702;2023-11-21T03:41:22;10.00;99.90
9564;DHT22;4820;50.870;4.702;2023-11-21T03:43:48;10.00;99.90
9564;DHT22;4820;50.870;4.702;2023-11-21T03:46:14;10.00;99.90
9564;DHT22;4820;50.870;4.702;2023-11-21T03:48:40;10.10;99.90
9564;DHT22;4820;50.870;4.702;2023-11-21T03:51:07;10.10;99.90
9564;DHT22;4820;50.870;4.702;2023-11-21T03:53:32;10.10;99.90
9564;DHT22;4820;50.870;4.702;2023-11-21T03:55:58;10.10;99.90
9564;DHT22;4820;50.870;4.702;2023-11-21T03:58:25;10.10;99.90
9564;DHT22;4820;50.870;4.702;2023-11-21T04:00:51;10.10;99.90
9564;DHT22;4820;50.870;4.702;2023-11-21T04:03:16;10.10;99.90
9564;DHT22;4820;50.870;4.702;2023-11-21T04:05:42;10.10;99.90
9564;DHT22;4820;50.870;4.702;2023-11-21T04:08:08;10.10;99.90
9564;DHT22;4820;50.870;4.702;2023-11-21T04:10:33;10.10;99.90
9564;DHT22;4820;50.870;4.702;2023-11-21T04:13:00;10.10;99.90
9564;DHT22;4820;50.870;4.702;2023-11-21T04:15:26;10.10;99.90
9564;DHT22;4820;50.870;4.702;2023-11-21T04:17:53;10.10;99.90
9564;DHT22;4820;50.870;4.702;2023-11-21T04:20:19;10.10;99.90
9564;DHT22;4820;50.870;4.702;2023-11-21T04:22:45;10.10;99.90
9564;DHT22;4820;50.870;4.702;2023-11-21T04:25:12;10.10;99.90
9564;DHT22;4820;50.870;4.702;2023-11-21T04:27:39;10.10;99.90
9564;DHT22;4820;50.870;4.702;2023-11-21T04:30:06;10.20;99.90
9564;DHT22;4820;50.870;4.702;2023-11-21T04:32:32;10.20;99.90
9564;DHT22;4820;50.870;4.702;2023-11-21T04:34:58;10.20;99.90
9564;DHT22;4820;50.870;4.702;2023-11-21T04:37:24;10.20;99.90
9564;DHT22;4820;50.870;4.702;2023-11-21T04:39:50;10.20;99.90
9564;DHT22;4820;50.870;4.702;2023-11-21T04:42:15;10.20;99.90
9564;DHT22;4820;50.870;4.702;2023-11-21T04:44:41;10.20;99.90
9564;DHT22;4820;50.870;4.702;2023-11-21T04:47:07;10.20;99.90
9564;DHT22;4820;50.870;4.702;2023-11-21T04:49:33;10.20;99.90
9564;DHT22;4820;50.870;4.702;2023-11-21T04:51:59;10.20;99.90
9564;DHT22;4820;50.870;4.702;2023-11-21T04:54:25;10.20;99.90
9564;DHT22;4820;50.870;4.702;2023-11-21T04:56:50;10.20;99.90
9564;DHT22;4820;50.870;4.702;2023-11-21T04:59:16;10.20;99.90
9564;DHT22;4820;50.870;4.702;2023-11-21T05:01:42;10.20;99.90
9564;DHT22;4820;50.870;4.702;2023-11-21T05:04:07;10.20;99.90
9564;DHT22;4820;50.870;4.702;2023-11-21T05:06:34;10.30;99.90
9564;DHT22;4820;50.870;4.702;2023-11-21T05:09:00;10.30;99.90
9564;DHT22;4820;50.870;4.702;2023-11-21T05:11:27;10.30;99.90
9564;DHT22;4820;50.870;4.702;2023-11-21T05:13:54;10.30;99.90
9564;DHT22;4820;50.870;4.702;2023-11-21T05:16:21;10.30;99.90
9564;DHT22;4820;50.870;4.702;2023-11-21T05:18:47;10.30;99.90
9564;DHT22;4820;50.870;4.702;2023-11-21T05:21:16;10.40;99.90
9564;DHT22;4820;50.870;4.702;2023-11-21T05:23:41;10.30;99.90
9564;DHT22;4820;50.870;4.702;2023-11-21T05:26:07;10.30;99.90
9564;DHT22;4820;50.870;4.702;2023-11-21T05:28:33;10.30;99.90
9564;DHT22;4820;50.870;4.702;2023-11-21T05:30:58;10.40;99.90
9564;DHT22;4820;50.870;4.702;2023-11-21T05:33:25;10.40;99.90
9564;DHT22;4820;50.870;4.702;2023-11-21T05:35:50;10.40;99.90
9564;DHT22;4820;50.870;4.702;2023-11-21T05:38:16;10.40;99.90
9564;DHT22;4820;50.870;4.702;2023-11-21T05:40:43;10.40;99.90
9564;DHT22;4820;50.870;4.702;2023-11-21T05:43:09;10.40;99.90
9564;DHT22;4820;50.870;4.702;2023-11-21T05:45:35;10.40;99.90
9564;DHT22;4820;50.870;4.702;2023-11-21T05:48:00;10.40;99.90
9564;DHT22;4820;50.870;4.702;2023-11-21T05:50:26;10.40;99.90
9564;DHT22;4820;50.870;4.702;2023-11-21T05:52:52;10.40;99.90
9564;DHT22;4820;50.870;4.702;2023-11-21T05:55:18;10.50;99.90
9564;DHT22;4820;50.870;4.702;2023-11-21T05:57:46;10.40;99.90
9564;DHT22;4820;50.870;4.702;2023-11-21T06:00:13;10.40;99.90
9564;DHT22;4820;50.870;4.702;2023-11-21T06:02:50;10.40;99.90
9564;DHT22;4820;50.870;4.702;2023-11-21T06:05:20;10.40;99.90
9564;DHT22;4820;50.870;4.702;2023-11-21T06:07:46;10.40;99.90
9564;DHT22;4820;50.870;4.702;2023-11-21T06:10:12;10.40;99.90
9564;DHT22;4820;50.870;4.702;2023-11-21T06:12:40;10.50;99.90
9564;DHT22;4820;50.870;4.702;2023-11-21T06:15:09;10.40;99.90
9564;DHT22;4820;50.870;4.702;2023-11-21T06:17:36;10.40;99.90
9564;DHT22;4820;50.870;4.702;2023-11-21T06:20:03;10.40;99.90
9564;DHT22;4820;50.870;4.702;2023-11-21T06:22:36;10.40;99.90
9564;DHT22;4820;50.870;4.702;2023-11-21T06:25:02;10.40;99.90
9564;DHT22;4820;50.870;4.702;2023-11-21T06:27:31;10.30;99.90
9564;DHT22;4820;50.870;4.702;2023-11-21T06:29:56;10.30;99.90
9564;DHT22;4820;50.870;4.702;2023-11-21T06:32:22;10.30;99.90
9564;DHT22;4820;50.870;4.702;2023-11-21T06:34:50;10.30;99.90
9564;DHT22;4820;50.870;4.702;2023-11-21T06:37:17;10.30;99.90
9564;DHT22;4820;50.870;4.702;2023-11-21T06:39:43;10.30;99.90
9564;DHT22;4820;50.870;4.702;2023-11-21T06:42:09;10.30;99.90
9564;DHT22;4820;50.870;4.702;2023-11-21T06:44:37;10.30;99.90
9564;DHT22;4820;50.870;4.702;2023-11-21T06:47:03;10.30;99.90
9564;DHT22;4820;50.870;4.702;2023-11-21T06:49:32;10.30;99.90
9564;DHT22;4820;50.870;4.702;2023-11-21T06:51:58;10.40;99.90
9564;DHT22;4820;50.870;4.702;2023-11-21T06:54:26;10.30;99.90
9564;DHT22;4820;50.870;4.702;2023-11-21T06:56:52;10.30;99.90
9564;DHT22;4820;50.870;4.702;2023-11-21T06:59:19;10.30;99.90
9564;DHT22;4820;50.870;4.702;2023-11-21T07:01:44;10.30;99.90
9564;DHT22;4820;50.870;4.702;2023-11-21T07:04:10;10.30;99.90
9564;DHT22;4820;50.870;4.702;2023-11-21T07:06:35;10.30;99.90
9564;DHT22;4820;50.870;4.702;2023-11-21T07:09:01;10.40;99.90
9564;DHT22;4820;50.870;4.702;2023-11-21T07:11:28;10.40;99.90
9564;DHT22;4820;50.870;4.702;2023-11-21T07:13:54;10.50;99.90
9564;DHT22;4820;50.870;4.702;2023-11-21T07:16:20;10.50;99.90
9564;DHT22;4820;50.870;4.702;2023-11-21T07:18:46;10.50;99.90
9564;DHT22;4820;50.870;4.702;2023-11-21T07:21:12;10.50;99.90
9564;DHT22;4820;50.870;4.702;2023-11-21T07:23:38;10.50;99.90
9564;DHT22;4820;50.870;4.702;2023-11-21T07:26:04;10.50;99.90
9564;DHT22;4820;50.870;4.702;2023-11-21T07:28:34;10.50;99.90
9564;DHT22;4820;50.870;4.702;2023-11-21T07:31:01;10.50;99.90
9564;DHT22;4820;50.870;4.702;2023-11-21T07:33:27;10.50;99.90
9564;DHT22;4820;50.870;4.702;2023-11-21T07:35:53;10.60;99.90
9564;DHT22;4820;50.870;4.702;2023-11-21T07:38:18;10.60;99.90
9564;DHT22;4820;50.870;4.702;2023-11-21T07:40:44;10.60;99.90
9564;DHT22;4820;50.870;4.702;2023-11-21T07:43:10;10.60;99.90
9564;DHT22;4820;50.870;4.702;2023-11-21T07:45:36;10.60;99.90
9564;DHT22;4820;50.870;4.702;2023-11-21T07:48:02;10.70;99.90
9564;DHT22;4820;50.870;4.702;2023-11-21T07:50:29;10.70;99.90
9564;DHT22;4820;50.870;4.702;2023-11-21T07:52:55;10.60;99.90
9564;DHT22;4820;50.870;4.702;2023-11-21T07:55:22;10.70;99.90
9564;DHT22;4820;50.870;4.702;2023-11-21T07:57:47;10.70;99.90
9564;DHT22;4820;50.870;4.702;2023-11-21T08:00:13;10.70;99.90
9564;DHT22;4820;50.870;4.702;2023-11-21T08:02:40;10.70;99.90
9564;DHT22;4820;50.870;4.702;2023-11-21T08:05:12;10.70;99.90
9564;DHT22;4820;50.870;4.702;2023-11-21T08:07:38;10.70;99.90
9564;DHT22;4820;50.870;4.702;2023-11-21T08:10:04;10.70;99.90
9564;DHT22;4820;50.870;4.702;2023-11-21T08:12:31;10.80;99.90
9564;DHT22;4820;50.870;4.702;2023-11-21T08:14:57;10.80;99.90
9564;DHT22;4820;50.870;4.702;2023-11-21T08:17:22;10.80;99.90
9564;DHT22;4820;50.870;4.702;2023-11-21T08:19:48;10.80;99.90
9564;DHT22;4820;50.870;4.702;2023-11-21T08:22:17;10.80;99.90
9564;DHT22;4820;50.870;4.702;2023-11-21T08:24:46;10.90;99.90
9564;DHT22;4820;50.870;4.702;2023-11-21T08:27:12;10.90;99.90
9564;DHT22;4820;50.870;4.702;2023-11-21T08:29:41;11.00;99.90
9564;DHT22;4820;50.870;4.702;2023-11-21T08:32:07;11.00;99.90
9564;DHT22;4820;50.870;4.702;2023-11-21T08:34:34;11.10;99.90
9564;DHT22;4820;50.870;4.702;2023-11-21T08:37:02;11.10;99.90
9564;DHT22;4820;50.870;4.702;2023-11-21T08:39:28;11.10;99.90
9564;DHT22;4820;50.870;4.702;2023-11-21T08:41:56;11.10;99.90
9564;DHT22;4820;50.870;4.702;2023-11-21T08:44:22;11.10;99.90
9564;DHT22;4820;50.870;4.702;2023-11-21T08:46:48;11.10;99.90
9564;DHT22;4820;50.870;4.702;2023-11-21T08:49:14;11.10;99.90
9564;DHT22;4820;50.870;4.702;2023-11-21T08:51:41;11.10;99.90
9564;DHT22;4820;50.870;4.702;2023-11-21T08:54:06;11.10;99.90
9564;DHT22;4820;50.870;4.702;2023-11-21T08:56:35;11.10;99.90
9564;DHT22;4820;50.870;4.702;2023-11-21T08:59:01;11.20;99.90
9564;DHT22;4820;50.870;4.702;2023-11-21T09:01:31;11.20;99.90
9564;DHT22;4820;50.870;4.702;2023-11-21T09:03:58;11.20;99.90
9564;DHT22;4820;50.870;4.702;2023-11-21T09:06:24;11.20;99.90
9564;DHT22;4820;50.870;4.702;2023-11-21T09:08:50;11.20;99.90
9564;DHT22;4820;50.870;4.702;2023-11-21T09:11:16;11.30;99.90
9564;DHT22;4820;50.870;4.702;2023-11-21T09:13:42;11.30;99.90
9564;DHT22;4820;50.870;4.702;2023-11-21T09:16:08;11.30;99.90
9564;DHT22;4820;50.870;4.702;2023-11-21T09:18:34;11.30;99.90
9564;DHT22;4820;50.870;4.702;2023-11-21T09:21:00;11.30;99.90
9564;DHT22;4820;50.870;4.702;2023-11-21T09:23:25;11.40;99.90
9564;DHT22;4820;50.870;4.702;2023-11-21T09:25:52;11.40;99.90
9564;DHT22;4820;50.870;4.702;2023-11-21T09:28:19;11.40;99.90
9564;DHT22;4820;50.870;4.702;2023-11-21T09:30:47;11.40;99.90
9564;DHT22;4820;50.870;4.702;2023-11-21T09:33:14;11.50;99.90
9564;DHT22;4820;50.870;4.702;2023-11-21T09:35:40;11.50;99.90
9564;DHT22;4820;50.870;4.702;2023-11-21T09:38:06;11.50;99.90
9564;DHT22;4820;50.870;4.702;2023-11-21T09:40:37;11.60;99.90
9564;DHT22;4820;50.870;4.702;2023-11-21T09:43:09;11.60;99.90
9564;DHT22;4820;50.870;4.702;2023-11-21T09:45:46;11.60;99.90
9564;DHT22;4820;50.870;4.702;2023-11-21T09:48:14;11.60;99.90
9564;DHT22;4820;50.870;4.702;2023-11-21T09:50:42;11.60;99.90
9564;DHT22;4820;50.870;4.702;2023-11-21T09:53:20;11.60;99.90
9564;DHT22;4820;50.870;4.702;2023-11-21T09:55:53;11.60;99.90
9564;DHT22;4820;50.870;4.702;2023-11-21T09:58:20;11.60;99.90
9564;DHT22;4820;50.870;4.702;2023-11-21T10:00:49;11.60;99.90
9564;DHT22;4820;50.870;4.702;2023-11-21T10:03:15;11.60;99.90
9564;DHT22;4820;50.870;4.702;2023-11-21T10:05:45;11.70;99.90
9564;DHT22;4820;50.870;4.702;2023-11-21T10:08:12;11.80;99.90
9564;DHT22;4820;50.870;4.702;2023-11-21T10:10:45;11.80;99.90
9564;DHT22;4820;50.870;4.702;2023-11-21T10:13:12;11.90;99.90
9564;DHT22;4820;50.870;4.702;2023-11-21T10:15:42;11.90;99.90
9564;DHT22;4820;50.870;4.702;2023-11-21T10:18:15;11.90;99.90
9564;DHT22;4820;50.870;4.702;2023-11-21T10:20:45;11.90;99.90
9564;DHT22;4820;50.870;4.702;2023-11-21T10:23:20;11.90;99.90
9564;DHT22;4820;50.870;4.702;2023-11-21T10:25:47;11.80;99.90
9564;DHT22;4820;50.870;4.702;2023-11-21T10:28:14;11.80;99.90
9564;DHT22;4820;50.870;4.702;2023-11-21T10:30:39;11.90;99.90
9564;DHT22;4820;50.870;4.702;2023-11-21T10:33:06;11.80;99.90
9564;DHT22;4820;50.870;4.702;2023-11-21T10:35:47;11.80;99.90
9564;DHT22;4820;50.870;4.702;2023-11-21T10:38:16;11.80;99.90
9564;DHT22;4820;50.870;4.702;2023-11-21T10:40:43;11.80;99.90
9564;DHT22;4820;50.870;4.702;2023-11-21T10:43:11;11.80;99.90
9564;DHT22;4820;50.870;4.702;2023-11-21T10:45:38;11.90;99.90
9564;DHT22;4820;50.870;4.702;2023-11-21T10:48:09;11.90;99.90
9564;DHT22;4820;50.870;4.702;2023-11-21T10:50:37;11.90;99.90
9564;DHT22;4820;50.870;4.702;2023-11-21T10:53:04;12.00;99.90
9564;DHT22;4820;50.870;4.702;2023-11-21T10:55:32;12.00;99.90
9564;DHT22;4820;50.870;4.702;2023-11-21T10:58:02;12.10;99.90
9564;DHT22;4820;50.870;4.702;2023-11-21T11:00:31;12.10;99.90
9564;DHT22;4820;50.870;4.702;2023-11-21T11:02:57;12.10;99.90
9564;DHT22;4820;50.870;4.702;2023-11-21T11:05:25;12.20;99.90
9564;DHT22;4820;50.870;4.702;2023-11-21T11:08:08;12.10;99.90
9564;DHT22;4820;50.870;4.702;2023-11-21T11:10:34;12.10;99.90
9564;DHT22;4820;50.870;4.702;2023-11-21T11:13:00;12.10;99.90
9564;DHT22;4820;50.870;4.702;2023-11-21T11:15:27;12.10;99.90
9564;DHT22;4820;50.870;4.702;2023-11-21T11:17:54;12.10;99.90
9564;DHT22;4820;50.870;4.702;2023-11-21T11:20:45;12.00;99.90
9564;DHT22;4820;50.870;4.702;2023-11-21T11:34:44;12.00;99.90
9564;DHT22;4820;50.870;4.702;2023-11-21T11:37:12;12.00;99.90
9564;DHT22;4820;50.870;4.702;2023-11-21T11:39:41;12.10;99.90
9564;DHT22;4820;50.870;4.702;2023-11-21T11:42:15;12.10;99.90
9564;DHT22;4820;50.870;4.702;2023-11-21T11:52:53;12.00;99.90
9564;DHT22;4820;50.870;4.702;2023-11-21T11:55:24;12.00;99.90
9564;DHT22;4820;50.870;4.702;2023-11-21T11:57:52;12.10;99.90
9564;DHT22;4820;50.870;4.702;2023-11-21T12:02:46;11.90;99.90
9564;DHT22;4820;50.870;4.702;2023-11-21T12:05:17;11.90;99.90
9564;DHT22;4820;50.870;4.702;2023-11-21T12:07:56;11.90;99.90
9564;DHT22;4820;50.870;4.702;2023-11-21T12:10:23;12.00;99.90
9564;DHT22;4820;50.870;4.702;2023-11-21T12:13:10;12.10;99.90
9564;DHT22;4820;50.870;4.702;2023-11-21T12:15:38;12.10;99.90
9564;DHT22;4820;50.870;4.702;2023-11-21T12:18:04;12.10;99.90
9564;DHT22;4820;50.870;4.702;2023-11-21T12:20:31;12.30;99.90
9564;DHT22;4820;50.870;4.702;2023-11-21T12:23:04;12.50;99.90
9564;DHT22;4820;50.870;4.702;2023-11-21T12:25:31;12.70;99.90
9564;DHT22;4820;50.870;4.702;2023-11-21T12:27:58;12.80;99.90
9564;DHT22;4820;50.870;4.702;2023-11-21T12:30:30;12.90;99.90
9564;DHT22;4820;50.870;4.702;2023-11-21T12:32:59;12.90;99.90
9564;DHT22;4820;50.870;4.702;2023-11-21T12:35:31;12.90;99.90
9564;DHT22;4820;50.870;4.702;2023-11-21T12:38:00;13.00;99.90
9564;DHT22;4820;50.870;4.702;2023-11-21T12:40:28;13.00;99.90
9564;DHT22;4820;50.870;4.702;2023-11-21T12:42:56;13.00;99.90
9564;DHT22;4820;50.870;4.702;2023-11-21T12:45:27;13.00;99.90
9564;DHT22;4820;50.870;4.702;2023-11-21T12:50:26;12.80;99.90
9564;DHT22;4820;50.870;4.702;2023-11-21T12:53:08;12.70;99.90
9564;DHT22;4820;50.870;4.702;2023-11-21T12:55:35;12.60;99.90
9564;DHT22;4820;50.870;4.702;2023-11-21T12:58:06;12.50;99.90
9564;DHT22;4820;50.870;4.702;2023-11-21T13:00:40;12.50;99.90
9564;DHT22;4820;50.870;4.702;2023-11-21T13:03:09;12.50;99.90
9564;DHT22;4820;50.870;4.702;2023-11-21T13:05:38;12.70;99.90
9564;DHT22;4820;50.870;4.702;2023-11-21T13:08:07;12.60;99.90
9564;DHT22;4820;50.870;4.702;2023-11-21T13:10:37;12.50;99.90
9564;DHT22;4820;50.870;4.702;2023-11-21T13:13:06;12.50;99.90
9564;DHT22;4820;50.870;4.702;2023-11-21T13:15:34;12.40;99.90
9564;DHT22;4820;50.870;4.702;2023-11-21T13:18:02;12.40;99.90
9564;DHT22;4820;50.870;4.702;2023-11-21T13:20:28;12.40;99.90
9564;DHT22;4820;50.870;4.702;2023-11-21T13:22:56;12.40;99.90
9564;DHT22;4820;50.870;4.702;2023-11-21T13:25:29;12.40;99.90
9564;DHT22;4820;50.870;4.702;2023-11-21T13:27:57;12.50;99.90
9564;DHT22;4820;50.870;4.702;2023-11-21T13:30:25;12.60;99.90
9564;DHT22;4820;50.870;4.702;2023-11-21T13:32:59;12.70;99.90
9564;DHT22;4820;50.870;4.702;2023-11-21T13:35:30;12.70;99.90
9564;DHT22;4820;50.870;4.702;2023-11-21T13:38:04;12.80;99.90
9564;DHT22;4820;50.870;4.702;2023-11-21T13:40:31;12.80;99.90
9564;DHT22;4820;50.870;4.702;2023-11-21T13:42:56;12.80;99.90
9564;DHT22;4820;50.870;4.702;2023-11-21T13:45:27;12.70;99.90
9564;DHT22;4820;50.870;4.702;2023-11-21T13:47:54;12.60;99.90
9564;DHT22;4820;50.870;4.702;2023-11-21T13:50:23;12.60;99.90
9564;DHT22;4820;50.870;4.702;2023-11-21T13:52:52;12.60;99.90
9564;DHT22;4820;50.870;4.702;2023-11-21T13:55:19;12.50;99.90
9564;DHT22;4820;50.870;4.702;2023-11-21T13:57:45;12.50;99.90
9564;DHT22;4820;50.870;4.702;2023-11-21T14:00:15;12.40;99.90
9564;DHT22;4820;50.870;4.702;2023-11-21T14:03:00;12.40;99.90
9564;DHT22;4820;50.870;4.702;2023-11-21T14:05:27;12.40;99.90
9564;DHT22;4820;50.870;4.702;2023-11-21T14:07:57;12.40;99.90
9564;DHT22;4820;50.870;4.702;2023-11-21T14:10:30;12.40;99.90
9564;DHT22;4820;50.870;4.702;2023-11-21T14:13:06;12.30;99.90
9564;DHT22;4820;50.870;4.702;2023-11-21T14:15:32;12.40;99.90
9564;DHT22;4820;50.870;4.702;2023-11-21T14:18:02;12.40;99.90
9564;DHT22;4820;50.870;4.702;2023-11-21T14:20:33;12.40;99.90
9564;DHT22;4820;50.870;4.702;2023-11-21T14:23:01;12.30;99.90
9564;DHT22;4820;50.870;4.702;2023-11-21T14:25:27;12.30;99.90
9564;DHT22;4820;50.870;4.702;2023-11-21T14:27:53;12.20;99.90
9564;DHT22;4820;50.870;4.702;2023-11-21T14:30:19;12.30;99.90
9564;DHT22;4820;50.870;4.702;2023-11-21T14:32:48;12.30;99.90
9564;DHT22;4820;50.870;4.702;2023-11-21T14:35:18;12.40;99.90
9564;DHT22;4820;50.870;4.702;2023-11-21T14:37:43;12.40;99.90
9564;DHT22;4820;50.870;4.702;2023-11-21T14:40:12;12.40;99.90
9564;DHT22;4820;50.870;4.702;2023-11-21T14:42:42;12.40;99.90
9564;DHT22;4820;50.870;4.702;2023-11-21T14:45:08;12.40;99.90
9564;DHT22;4820;50.870;4.702;2023-11-21T14:47:37;12.40;99.90
9564;DHT22;4820;50.870;4.702;2023-11-21T14:50:04;12.50;99.90
9564;DHT22;4820;50.870;4.702;2023-11-21T14:52:50;12.50;99.90
9564;DHT22;4820;50.870;4.702;2023-11-21T14:55:24;12.40;99.90
9564;DHT22;4820;50.870;4.702;2023-11-21T14:58:29;12.40;99.90
9564;DHT22;4820;50.870;4.702;2023-11-21T15:00:58;12.40;99.90
9564;DHT22;4820;50.870;4.702;2023-11-21T15:03:29;12.30;99.90
9564;DHT22;4820;50.870;4.702;2023-11-21T15:06:02;12.20;99.90
9564;DHT22;4820;50.870;4.702;2023-11-21T15:08:55;12.20;99.90
9564;DHT22;4820;50.870;4.702;2023-11-21T15:11:34;12.20;99.90
9564;DHT22;4820;50.870;4.702;2023-11-21T15:14:02;12.10;99.90
9564;DHT22;4820;50.870;4.702;2023-11-21T15:16:35;12.10;99.90
9564;DHT22;4820;50.870;4.702;2023-11-21T15:19:15;12.00;99.90
9564;DHT22;4820;50.870;4.702;2023-11-21T15:21:44;12.00;99.90
9564;DHT22;4820;50.870;4.702;2023-11-21T15:24:12;11.90;99.90
9564;DHT22;4820;50.870;4.702;2023-11-21T15:26:37;11.90;99.90
9564;DHT22;4820;50.870;4.702;2023-11-21T15:29:04;11.90;99.90
9564;DHT22;4820;50.870;4.702;2023-11-21T15:31:30;11.90;99.90
9564;DHT22;4820;50.870;4.702;2023-11-21T15:33:56;11.90;99.90
9564;DHT22;4820;50.870;4.702;2023-11-21T15:36:26;11.90;99.90
9564;DHT22;4820;50.870;4.702;2023-11-21T15:38:52;11.90;99.90
9564;DHT22;4820;50.870;4.702;2023-11-21T15:41:19;11.90;99.90
9564;DHT22;4820;50.870;4.702;2023-11-21T15:43:44;11.90;99.90
9564;DHT22;4820;50.870;4.702;2023-11-21T15:46:10;11.90;99.90
9564;DHT22;4820;50.870;4.702;2023-11-21T15:48:37;11.90;99.90
9564;DHT22;4820;50.870;4.702;2023-11-21T15:51:06;11.90;99.90
9564;DHT22;4820;50.870;4.702;2023-11-21T15:53:33;11.90;99.90
9564;DHT22;4820;50.870;4.702;2023-11-21T15:55:59;11.90;99.90
9564;DHT22;4820;50.870;4.702;2023-11-21T15:58:25;11.90;99.90
9564;DHT22;4820;50.870;4.702;2023-11-21T16:00:51;11.80;99.90
9564;DHT22;4820;50.870;4.702;2023-11-21T16:03:17;11.80;99.90
9564;DHT22;4820;50.870;4.702;2023-11-21T16:05:43;11.80;99.90
9564;DHT22;4820;50.870;4.702;2023-11-21T16:08:09;11.80;99.90
9564;DHT22;4820;50.870;4.702;2023-11-21T16:10:35;11.80;99.90
9564;DHT22;4820;50.870;4.702;2023-11-21T16:13:01;11.80;99.90
9564;DHT22;4820;50.870;4.702;2023-11-21T16:15:28;11.70;99.90
9564;DHT22;4820;50.870;4.702;2023-11-21T16:17:54;11.70;99.90
9564;DHT22;4820;50.870;4.702;2023-11-21T16:20:19;11.70;99.90
9564;DHT22;4820;50.870;4.702;2023-11-21T16:22:45;11.60;99.90
9564;DHT22;4820;50.870;4.702;2023-11-21T16:25:11;11.60;99.90
9564;DHT22;4820;50.870;4.702;2023-11-21T16:27:38;11.50;99.90
9564;DHT22;4820;50.870;4.702;2023-11-21T16:30:04;11.60;99.90
9564;DHT22;4820;50.870;4.702;2023-11-21T16:32:30;11.50;99.90